sensor_id;sensor_type;location;lat;lon;timestamp;temperature;humidity
15013;DHT22;7603;49.432;11.418;2024-01-07T00:00:01;2.70;99.90
15013;DHT22;7603;49.432;11.418;2024-01-07T00:02:27;2.70;99.90
15013;DHT22;7603;49.432;11.418;2024-01-07T00:04:52;2.70;99.90
15013;DHT22;7603;49.432;11.418;2024-01-07T00:07:18;2.70;99.90
15013;DHT22;7603;49.432;11.418;2024-01-07T00:09:46;2.70;99.90
15013;DHT22;7603;49.432;11.418;2024-01-07T00:12:11;2.70;99.90
15013;DHT22;7603;49.432;11.418;2024-01-07T00:14:37;2.70;99.90
15013;DHT22;7603;49.432;11.418;2024-01-07T00:17:03;2.70;99.90
15013;DHT22;7603;49.432;11.418;2024-01-07T00:19:28;2.70;99.90
15013;DHT22;7603;49.432;11.418;2024-01-07T00:21:57;2.70;99.90
15013;DHT22;7603;49.432;11.418;2024-01-07T00:24:22;2.70;99.90
15013;DHT22;7603;49.432;11.418;2024-01-07T00:26:51;2.70;99.90
15013;DHT22;7603;49.432;11.418;2024-01-07T00:29:16;2.70;99.90
15013;DHT22;7603;49.432;11.418;2024-01-07T00:31:42;2.70;99.90
15013;DHT22;7603;49.432;11.418;2024-01-07T00:34:07;2.70;99.90
15013;DHT22;7603;49.432;11.418;2024-01-07T00:36:33;2.70;99.90
15013;DHT22;7603;49.432;11.418;2024-01-07T00:38:59;2.70;99.90
15013;DHT22;7603;49.432;11.418;2024-01-07T00:41:24;2.70;99.90
15013;DHT22;7603;49.432;11.418;2024-01-07T00:43:50;2.70;99.90
15013;DHT22;7603;49.432;11.418;2024-01-07T00:46:15;2.70;99.90
15013;DHT22;7603;49.432;11.418;2024-01-07T00:48:41;2.70;99.90
15013;DHT22;7603;49.432;11.418;2024-01-07T00:51:07;2.70;99.90
15013;DHT22;7603;49.432;11.418;2024-01-07T00:53:32;2.70;99.90
15013;DHT22;7603;49.432;11.418;2024-01-07T00:55:58;2.70;99.90
15013;DHT22;7603;49.432;11.418;2024-01-07T00:58:24;2.70;99.90
15013;DHT22;7603;49.432;11.418;2024-01-07T01:00:50;2.70;99.90
15013;DHT22;7603;49.432;11.418;2024-01-07T01:03:16;2.70;99.90
15013;DHT22;7603;49.432;11.418;2024-01-07T01:05:42;2.70;99.90
15013;DHT22;7603;49.432;11.418;2024-01-07T01:08:07;2.70;99.90
15013;DHT22;7603;49.432;11.418;2024-01-07T01:10:33;2.70;99.90
15013;DHT22;7603;49.432;11.418;2024-01-07T01:12:58;2.70;99.90
15013;DHT22;7603;49.432;11.418;2024-01-07T01:15:24;2.60;99.90
15013;DHT22;7603;49.432;11.418;2024-01-07T01:17:50;2.60;99.90
15013;DHT22;7603;49.432;11.418;2024-01-07T01:20:15;2.60;99.90
15013;DHT22;7603;49.432;11.418;2024-01-07T01:22:41;2.70;99.90
15013;DHT22;7603;49.432;11.418;2024-01-07T01:25:07;2.70;99.90
15013;DHT22;7603;49.432;11.418;2024-01-07T01:27:33;2.70;99.90
15013;DHT22;7603;49.432;11.418;2024-01-07T01:29:58;2.70;99.90
15013;DHT22;7603;49.432;11.418;2024-01-07T01:32:24;2.70;99.90
15013;DHT22;7603;49.432;11.418;2024-01-07T01:34:50;2.80;99.90
15013;DHT22;7603;49.432;11.418;2024-01-07T01:37:15;2.80;99.90
15013;DHT22;7603;49.432;11.418;2024-01-07T01:39:42;2.90;99.90
15013;DHT22;7603;49.432;11.418;2024-01-07T01:42:08;2.90;99.90
15013;DHT22;7603;49.432;11.418;2024-01-07T01:44:33;3.00;99.90
15013;DHT22;7603;49.432;11.418;2024-01-07T01:47:00;3.00;99.90
15013;DHT22;7603;49.432;11.418;2024-01-07T01:49:27;3.10;99.90
15013;DHT22;7603;49.432;11.418;2024-01-07T01:51:53;3.10;99.90
15013;DHT22;7603;49.432;11.418;2024-01-07T01:54:19;3.10;99.90
15013;DHT22;7603;49.432;11.418;2024-01-07T01:56:46;3.20;99.90
15013;DHT22;7603;49.432;11.418;2024-01-07T01:59:14;3.20;99.90
15013;DHT22;7603;49.432;11.418;2024-01-07T02:01:40;3.30;99.90
15013;DHT22;7603;49.432;11.418;2024-01-07T02:04:06;3.40;99.90
15013;DHT22;7603;49.432;11.418;2024-01-07T02:06:32;3.40;99.90
15013;DHT22;7603;49.432;11.418;2024-01-07T02:08:58;3.40;99.90
15013;DHT22;7603;49.432;11.418;2024-01-07T02:11:23;3.40;99.90
15013;DHT22;7603;49.432;11.418;2024-01-07T02:13:49;3.50;99.90
15013;DHT22;7603;49.432;11.418;2024-01-07T02:16:15;3.50;99.90
15013;DHT22;7603;49.432;11.418;2024-01-07T02:18:42;3.50;99.90
15013;DHT22;7603;49.432;11.418;2024-01-07T02:21:09;3.50;99.90
15013;DHT22;7603;49.432;11.418;2024-01-07T02:23:35;3.50;99.90
15013;DHT22;7603;49.432;11.418;2024-01-07T02:26:01;3.60;99.90
15013;DHT22;7603;49.432;11.418;2024-01-07T02:28:27;3.60;99.90
15013;DHT22;7603;49.432;11.418;2024-01-07T02:30:53;3.60;99.90
15013;DHT22;7603;49.432;11.418;2024-01-07T02:33:18;3.60;99.90
15013;DHT22;7603;49.432;11.418;2024-01-07T02:35:44;3.60;99.90
15013;DHT22;7603;49.432;11.418;2024-01-07T02:38:10;3.60;99.90
15013;DHT22;7603;49.432;11.418;2024-01-07T02:40:35;3.60;99.90
15013;DHT22;7603;49.432;11.418;2024-01-07T02:43:01;3.50;99.90
15013;DHT22;7603;49.432;11.418;2024-01-07T02:45:26;3.60;99.90
15013;DHT22;7603;49.432;11.418;2024-01-07T02:47:52;3.60;99.90
15013;DHT22;7603;49.432;11.418;2024-01-07T02:50:17;3.60;99.90
15013;DHT22;7603;49.432;11.418;2024-01-07T02:52:43;3.60;99.90
15013;DHT22;7603;49.432;11.418;2024-01-07T02:55:09;3.60;99.90
15013;DHT22;7603;49.432;11.418;2024-01-07T02:57:35;3.60;99.90
15013;DHT22;7603;49.432;11.418;2024-01-07T03:00:01;3.60;99.90
15013;DHT22;7603;49.432;11.418;2024-01-07T03:02:27;3.50;99.90
15013;DHT22;7603;49.432;11.418;2024-01-07T03:04:53;3.50;99.90
15013;DHT22;7603;49.432;11.418;2024-01-07T03:07:19;3.50;99.90
15013;DHT22;7603;49.432;11.418;2024-01-07T03:09:44;3.50;99.90
15013;DHT22;7603;49.432;11.418;2024-01-07T03:12:10;3.50;99.90
15013;DHT22;7603;49.432;11.418;2024-01-07T03:14:35;3.50;99.90
15013;DHT22;7603;49.432;11.418;2024-01-07T03:17:01;3.50;99.90
15013;DHT22;7603;49.432;11.418;2024-01-07T03:19:27;3.40;99.90
15013;DHT22;7603;49.432;11.418;2024-01-07T03:21:52;3.40;99.90
15013;DHT22;7603;49.432;11.418;2024-01-07T03:24:18;3.40;99.90
15013;DHT22;7603;49.432;11.418;2024-01-07T03:26:43;3.30;99.90
15013;DHT22;7603;49.432;11.418;2024-01-07T03:29:09;3.30;99.90
15013;DHT22;7603;49.432;11.418;2024-01-07T03:31:35;3.30;99.90
15013;DHT22;7603;49.432;11.418;2024-01-07T03:34:00;3.30;99.90
15013;DHT22;7603;49.432;11.418;2024-01-07T03:36:26;3.30;99.90
15013;DHT22;7603;49.432;11.418;2024-01-07T03:38:51;3.30;99.90
15013;DHT22;7603;49.432;11.418;2024-01-07T03:41:20;3.20;99.90
15013;DHT22;7603;49.432;11.418;2024-01-07T03:43:49;3.20;99.90
15013;DHT22;7603;49.432;11.418;2024-01-07T03:46:16;3.20;99.90
15013;DHT22;7603;49.432;11.418;2024-01-07T03:48:42;3.20;99.90
15013;DHT22;7603;49.432;11.418;2024-01-07T03:51:07;3.30;99.90
15013;DHT22;7603;49.432;11.418;2024-01-07T03:53:33;3.20;99.90
15013;DHT22;7603;49.432;11.418;2024-01-07T03:55:59;3.20;99.90
15013;DHT22;7603;49.432;11.418;2024-01-07T03:58:25;3.20;99.90
15013;DHT22;7603;49.432;11.418;2024-01-07T04:00:50;3.20;99.90
15013;DHT22;7603;49.432;11.418;2024-01-07T04:03:16;3.20;99.90
15013;DHT22;7603;49.432;11.418;2024-01-07T04:05:42;3.20;99.90
15013;DHT22;7603;49.432;11.418;2024-01-07T04:08:11;3.20;99.90
15013;DHT22;7603;49.432;11.418;2024-01-07T04:10:37;3.10;99.90
15013;DHT22;7603;49.432;11.418;2024-01-07T04:13:04;3.10;99.90
15013;DHT22;7603;49.432;11.418;2024-01-07T04:15:29;3.10;99.90
15013;DHT22;7603;49.432;11.418;2024-01-07T04:17:55;3.10;99.90
15013;DHT22;7603;49.432;11.418;2024-01-07T04:20:21;3.10;99.90
15013;DHT22;7603;49.432;11.418;2024-01-07T04:22:46;3.10;99.90
15013;DHT22;7603;49.432;11.418;2024-01-07T04:25:12;3.10;99.90
15013;DHT22;7603;49.432;11.418;2024-01-07T04:27:38;3.10;99.90
15013;DHT22;7603;49.432;11.418;2024-01-07T04:30:05;3.00;99.90
15013;DHT22;7603;49.432;11.418;2024-01-07T04:32:31;3.00;99.90
15013;DHT22;7603;49.432;11.418;2024-01-07T04:34:56;3.00;99.90
15013;DHT22;7603;49.432;11.418;2024-01-07T04:37:23;3.00;99.90
15013;DHT22;7603;49.432;11.418;2024-01-07T04:39:49;3.00;99.90
15013;DHT22;7603;49.432;11.418;2024-01-07T04:42:16;2.90;99.90
15013;DHT22;7603;49.432;11.418;2024-01-07T04:44:42;2.90;99.90
15013;DHT22;7603;49.432;11.418;2024-01-07T04:47:27;2.90;99.90
15013;DHT22;7603;49.432;11.418;2024-01-07T04:49:54;2.90;99.90
15013;DHT22;7603;49.432;11.418;2024-01-07T04:52:21;2.90;99.90
15013;DHT22;7603;49.432;11.418;2024-01-07T04:54:46;2.90;99.90
15013;DHT22;7603;49.432;11.418;2024-01-07T04:57:12;2.90;99.90
15013;DHT22;7603;49.432;11.418;2024-01-07T04:59:38;2.80;99.90
15013;DHT22;7603;49.432;11.418;2024-01-07T05:02:03;2.80;99.90
15013;DHT22;7603;49.432;11.418;2024-01-07T05:04:29;2.80;99.90
15013;DHT22;7603;49.432;11.418;2024-01-07T05:06:54;2.80;99.90
15013;DHT22;7603;49.432;11.418;2024-01-07T05:09:20;2.80;99.90
15013;DHT22;7603;49.432;11.418;2024-01-07T05:11:46;2.80;99.90
15013;DHT22;7603;49.432;11.418;2024-01-07T05:14:11;2.70;99.90
15013;DHT22;7603;49.432;11.418;2024-01-07T05:16:37;2.70;99.90
15013;DHT22;7603;49.432;11.418;2024-01-07T05:19:03;2.70;99.90
15013;DHT22;7603;49.432;11.418;2024-01-07T05:21:29;2.70;99.90
15013;DHT22;7603;49.432;11.418;2024-01-07T05:23:54;2.50;99.90
15013;DHT22;7603;49.432;11.418;2024-01-07T05:26:21;2.60;99.90
15013;DHT22;7603;49.432;11.418;2024-01-07T05:28:46;2.60;99.90
15013;DHT22;7603;49.432;11.418;2024-01-07T05:31:18;2.60;99.90
15013;DHT22;7603;49.432;11.418;2024-01-07T05:33:45;2.60;99.90
15013;DHT22;7603;49.432;11.418;2024-01-07T05:36:14;2.50;99.90
15013;DHT22;7603;49.432;11.418;2024-01-07T05:38:43;2.50;99.90
15013;DHT22;7603;49.432;11.418;2024-01-07T05:41:08;2.50;99.90
15013;DHT22;7603;49.432;11.418;2024-01-07T05:43:35;2.50;99.90
15013;DHT22;7603;49.432;11.418;2024-01-07T05:46:01;2.50;99.90
15013;DHT22;7603;49.432;11.418;2024-01-07T05:48:27;2.40;99.90
15013;DHT22;7603;49.432;11.418;2024-01-07T05:50:52;2.50;99.90
15013;DHT22;7603;49.432;11.418;2024-01-07T05:53:18;2.50;99.90
15013;DHT22;7603;49.432;11.418;2024-01-07T05:55:43;2.40;99.90
15013;DHT22;7603;49.432;11.418;2024-01-07T05:58:10;2.40;99.90
15013;DHT22;7603;49.432;11.418;2024-01-07T06:00:35;2.40;99.90
15013;DHT22;7603;49.432;11.418;2024-01-07T06:03:01;2.30;99.90
15013;DHT22;7603;49.432;11.418;2024-01-07T06:05:27;2.40;99.90
15013;DHT22;7603;49.432;11.418;2024-01-07T06:07:53;2.30;99.90
15013;DHT22;7603;49.432;11.418;2024-01-07T06:10:18;2.30;99.90
15013;DHT22;7603;49.432;11.418;2024-01-07T06:12:44;2.30;99.90
15013;DHT22;7603;49.432;11.418;2024-01-07T06:15:09;2.30;99.90
15013;DHT22;7603;49.432;11.418;2024-01-07T06:17:35;2.30;99.90
15013;DHT22;7603;49.432;11.418;2024-01-07T06:20:01;2.30;99.90
15013;DHT22;7603;49.432;11.418;2024-01-07T06:22:26;2.30;99.90
15013;DHT22;7603;49.432;11.418;2024-01-07T06:24:52;2.20;99.90
15013;DHT22;7603;49.432;11.418;2024-01-07T06:27:17;2.10;99.90
15013;DHT22;7603;49.432;11.418;2024-01-07T06:29:43;2.20;99.90
15013;DHT22;7603;49.432;11.418;2024-01-07T06:32:09;2.20;99.90
15013;DHT22;7603;49.432;11.418;2024-01-07T06:34:37;2.20;99.90
15013;DHT22;7603;49.432;11.418;2024-01-07T06:37:03;2.10;99.90
15013;DHT22;7603;49.432;11.418;2024-01-07T06:39:29;2.10;99.90
15013;DHT22;7603;49.432;11.418;2024-01-07T06:41:54;2.10;99.90
15013;DHT22;7603;49.432;11.418;2024-01-07T06:44:20;2.10;99.90
15013;DHT22;7603;49.432;11.418;2024-01-07T06:46:46;2.00;99.90
15013;DHT22;7603;49.432;11.418;2024-01-07T06:49:11;2.10;99.90
15013;DHT22;7603;49.432;11.418;2024-01-07T06:51:38;2.10;99.90
15013;DHT22;7603;49.432;11.418;2024-01-07T06:54:04;2.20;99.90
15013;DHT22;7603;49.432;11.418;2024-01-07T06:56:30;2.10;99.90
15013;DHT22;7603;49.432;11.418;2024-01-07T06:58:56;2.00;99.90
15013;DHT22;7603;49.432;11.418;2024-01-07T07:01:22;2.00;99.90
15013;DHT22;7603;49.432;11.418;2024-01-07T07:03:49;2.00;99.90
15013;DHT22;7603;49.432;11.418;2024-01-07T07:06:15;2.00;99.90
15013;DHT22;7603;49.432;11.418;2024-01-07T07:08:40;2.00;99.90
15013;DHT22;7603;49.432;11.418;2024-01-07T07:11:06;2.00;99.90
15013;DHT22;7603;49.432;11.418;2024-01-07T07:13:32;2.00;99.90
15013;DHT22;7603;49.432;11.418;2024-01-07T07:15:57;2.00;99.90
15013;DHT22;7603;49.432;11.418;2024-01-07T07:18:23;2.00;99.90
15013;DHT22;7603;49.432;11.418;2024-01-07T07:20:49;2.00;99.90
15013;DHT22;7603;49.432;11.418;2024-01-07T07:23:15;2.00;99.90
15013;DHT22;7603;49.432;11.418;2024-01-07T07:25:41;2.00;99.90
15013;DHT22;7603;49.432;11.418;2024-01-07T07:28:06;2.00;99.90
15013;DHT22;7603;49.432;11.418;2024-01-07T07:30:32;2.00;99.90
15013;DHT22;7603;49.432;11.418;2024-01-07T07:32:57;2.10;99.90
15013;DHT22;7603;49.432;11.418;2024-01-07T07:35:23;2.00;99.90
15013;DHT22;7603;49.432;11.418;2024-01-07T07:37:49;2.00;99.90
15013;DHT22;7603;49.432;11.418;2024-01-07T07:40:15;2.10;99.90
15013;DHT22;7603;49.432;11.418;2024-01-07T07:42:40;2.00;99.90
15013;DHT22;7603;49.432;11.418;2024-01-07T07:45:06;2.00;99.90
15013;DHT22;7603;49.432;11.418;2024-01-07T07:47:32;2.00;99.90
15013;DHT22;7603;49.432;11.418;2024-01-07T07:49:58;2.00;99.90
15013;DHT22;7603;49.432;11.418;2024-01-07T07:52:24;1.90;99.90
15013;DHT22;7603;49.432;11.418;2024-01-07T07:54:54;1.90;99.90
15013;DHT22;7603;49.432;11.418;2024-01-07T07:57:20;1.90;99.90
15013;DHT22;7603;49.432;11.418;2024-01-07T07:59:48;1.80;99.90
15013;DHT22;7603;49.432;11.418;2024-01-07T08:02:14;1.80;99.90
15013;DHT22;7603;49.432;11.418;2024-01-07T08:04:40;1.70;99.90
15013;DHT22;7603;49.432;11.418;2024-01-07T08:07:08;1.70;99.90
15013;DHT22;7603;49.432;11.418;2024-01-07T08:09:34;1.70;99.90
15013;DHT22;7603;49.432;11.418;2024-01-07T08:12:03;1.80;99.90
15013;DHT22;7603;49.432;11.418;2024-01-07T08:14:28;1.70;99.90
15013;DHT22;7603;49.432;11.418;2024-01-07T08:16:54;1.70;99.90
15013;DHT22;7603;49.432;11.418;2024-01-07T08:19:20;1.80;99.90
15013;DHT22;7603;49.432;11.418;2024-01-07T08:21:46;1.70;99.90
15013;DHT22;7603;49.432;11.418;2024-01-07T08:24:11;1.70;99.90
15013;DHT22;7603;49.432;11.418;2024-01-07T08:26:37;1.70;99.90
15013;DHT22;7603;49.432;11.418;2024-01-07T08:29:03;1.70;99.90
15013;DHT22;7603;49.432;11.418;2024-01-07T08:31:29;1.70;99.90
15013;DHT22;7603;49.432;11.418;2024-01-07T08:33:55;1.70;99.90
15013;DHT22;7603;49.432;11.418;2024-01-07T08:36:21;1.70;99.90
15013;DHT22;7603;49.432;11.418;2024-01-07T08:38:47;1.70;99.90
15013;DHT22;7603;49.432;11.418;2024-01-07T08:41:15;1.70;99.90
15013;DHT22;7603;49.432;11.418;2024-01-07T08:43:41;1.70;99.90
15013;DHT22;7603;49.432;11.418;2024-01-07T08:46:07;1.70;99.90
15013;DHT22;7603;49.432;11.418;2024-01-07T08:48:33;1.60;99.90
15013;DHT22;7603;49.432;11.418;2024-01-07T08:50:58;1.70;99.90
15013;DHT22;7603;49.432;11.418;2024-01-07T08:56:46;1.60;99.90
15013;DHT22;7603;49.432;11.418;2024-01-07T08:59:12;1.50;99.90
15013;DHT22;7603;49.432;11.418;2024-01-07T09:01:37;1.50;99.90
15013;DHT22;7603;49.432;11.418;2024-01-07T09:04:03;1.50;99.90
15013;DHT22;7603;49.432;11.418;2024-01-07T09:06:28;1.50;99.90
15013;DHT22;7603;49.432;11.418;2024-01-07T09:08:54;1.50;99.90
15013;DHT22;7603;49.432;11.418;2024-01-07T09:11:20;1.50;99.90
15013;DHT22;7603;49.432;11.418;2024-01-07T09:13:46;1.50;99.90
15013;DHT22;7603;49.432;11.418;2024-01-07T09:16:14;1.60;99.90
15013;DHT22;7603;49.432;11.418;2024-01-07T09:18:40;1.50;99.90
15013;DHT22;7603;49.432;11.418;2024-01-07T09:21:05;1.50;99.90
15013;DHT22;7603;49.432;11.418;2024-01-07T09:23:31;1.50;99.90
15013;DHT22;7603;49.432;11.418;2024-01-07T09:25:59;1.50;99.90
15013;DHT22;7603;49.432;11.418;2024-01-07T09:28:24;1.40;99.90
15013;DHT22;7603;49.432;11.418;2024-01-07T09:30:50;1.40;99.90
15013;DHT22;7603;49.432;11.418;2024-01-07T09:33:16;1.40;99.90
15013;DHT22;7603;49.432;11.418;2024-01-07T09:35:42;1.50;99.90
15013;DHT22;7603;49.432;11.418;2024-01-07T09:38:09;1.40;99.90
15013;DHT22;7603;49.432;11.418;2024-01-07T09:40:34;1.40;99.90
15013;DHT22;7603;49.432;11.418;2024-01-07T09:43:00;1.40;99.90
15013;DHT22;7603;49.432;11.418;2024-01-07T09:45:26;1.50;99.90
15013;DHT22;7603;49.432;11.418;2024-01-07T09:47:54;1.60;99.90
15013;DHT22;7603;49.432;11.418;2024-01-07T09:50:19;1.60;99.90
15013;DHT22;7603;49.432;11.418;2024-01-07T09:52:45;1.60;99.90
15013;DHT22;7603;49.432;11.418;2024-01-07T09:55:40;1.60;99.90
15013;DHT22;7603;49.432;11.418;2024-01-07T09:58:06;1.50;99.90
15013;DHT22;7603;49.432;11.418;2024-01-07T10:00:32;1.50;99.90
15013;DHT22;7603;49.432;11.418;2024-01-07T10:02:58;1.50;99.90
15013;DHT22;7603;49.432;11.418;2024-01-07T10:05:24;1.50;99.90
15013;DHT22;7603;49.432;11.418;2024-01-07T10:07:49;1.40;99.90
15013;DHT22;7603;49.432;11.418;2024-01-07T10:10:16;1.40;99.90
15013;DHT22;7603;49.432;11.418;2024-01-07T10:12:44;1.50;99.90
15013;DHT22;7603;49.432;11.418;2024-01-07T10:15:11;1.30;99.90
15013;DHT22;7603;49.432;11.418;2024-01-07T10:17:36;1.30;99.90
15013;DHT22;7603;49.432;11.418;2024-01-07T10:20:05;1.30;99.90
15013;DHT22;7603;49.432;11.418;2024-01-07T10:22:31;1.30;99.90
15013;DHT22;7603;49.432;11.418;2024-01-07T10:24:57;1.30;99.90
15013;DHT22;7603;49.432;11.418;2024-01-07T10:27:23;1.40;99.90
15013;DHT22;7603;49.432;11.418;2024-01-07T10:29:50;1.30;99.90
15013;DHT22;7603;49.432;11.418;2024-01-07T10:32:19;1.40;99.90
15013;DHT22;7603;49.432;11.418;2024-01-07T10:34:46;1.40;99.90
15013;DHT22;7603;49.432;11.418;2024-01-07T10:37:15;1.40;99.90
15013;DHT22;7603;49.432;11.418;2024-01-07T10:39:40;1.40;99.90
15013;DHT22;7603;49.432;11.418;2024-01-07T10:42:06;1.50;99.90
15013;DHT22;7603;49.432;11.418;2024-01-07T10:44:33;1.50;99.90
15013;DHT22;7603;49.432;11.418;2024-01-07T10:46:59;1.50;99.90
15013;DHT22;7603;49.432;11.418;2024-01-07T10:49:27;1.50;99.90
15013;DHT22;7603;49.432;11.418;2024-01-07T10:52:05;1.50;99.90
15013;DHT22;7603;49.432;11.418;2024-01-07T10:54:33;1.50;99.90
15013;DHT22;7603;49.432;11.418;2024-01-07T10:57:13;1.50;99.90
15013;DHT22;7603;49.432;11.418;2024-01-07T10:59:45;1.50;99.90
15013;DHT22;7603;49.432;11.418;2024-01-07T11:02:11;1.50;99.90
15013;DHT22;7603;49.432;11.418;2024-01-07T11:05:15;1.40;99.90
15013;DHT22;7603;49.432;11.418;2024-01-07T11:07:46;1.40;99.90
15013;DHT22;7603;49.432;11.418;2024-01-07T11:10:21;1.40;99.90
15013;DHT22;7603;49.432;11.418;2024-01-07T11:12:56;1.40;99.90
15013;DHT22;7603;49.432;11.418;2024-01-07T11:18:20;1.40;99.90
15013;DHT22;7603;49.432;11.418;2024-01-07T11:20:47;1.40;99.90
15013;DHT22;7603;49.432;11.418;2024-01-07T11:23:35;1.40;99.90
15013;DHT22;7603;49.432;11.418;2024-01-07T11:26:06;1.40;99.90
15013;DHT22;7603;49.432;11.418;2024-01-07T11:28:55;1.40;99.90
15013;DHT22;7603;49.432;11.418;2024-01-07T11:34:08;1.40;99.90
15013;DHT22;7603;49.432;11.418;2024-01-07T11:36:35;1.40;99.90
15013;DHT22;7603;49.432;11.418;2024-01-07T11:39:01;1.40;99.90
15013;DHT22;7603;49.432;11.418;2024-01-07T11:41:33;1.50;99.90
15013;DHT22;7603;49.432;11.418;2024-01-07T11:44:00;1.50;99.90
15013;DHT22;7603;49.432;11.418;2024-01-07T11:46:26;1.50;99.90
15013;DHT22;7603;49.432;11.418;2024-01-07T11:48:54;1.50;99.90
15013;DHT22;7603;49.432;11.418;2024-01-07T11:51:28;1.50;99.90
15013;DHT22;7603;49.432;11.418;2024-01-07T11:53:56;1.40;99.90
15013;DHT22;7603;49.432;11.418;2024-01-07T11:56:22;1.50;99.90
15013;DHT22;7603;49.432;11.418;2024-01-07T11:58:47;1.40;99.90
15013;DHT22;7603;49.432;11.418;2024-01-07T12:01:15;1.40;99.90
15013;DHT22;7603;49.432;11.418;2024-01-07T12:03:43;1.40;99.90
15013;DHT22;7603;49.432;11.418;2024-01-07T12:06:09;1.40;99.90
15013;DHT22;7603;49.432;11.418;2024-01-07T12:08:38;1.30;99.90
15013;DHT22;7603;49.432;11.418;2024-01-07T12:11:05;1.40;99.90
15013;DHT22;7603;49.432;11.418;2024-01-07T12:13:31;1.40;99.90
15013;DHT22;7603;49.432;11.418;2024-01-07T12:15:57;1.30;99.90
15013;DHT22;7603;49.432;11.418;2024-01-07T12:18:22;1.40;99.90
15013;DHT22;7603;49.432;11.418;2024-01-07T12:20:57;1.40;99.90
15013;DHT22;7603;49.432;11.418;2024-01-07T12:23:24;1.50;99.90
15013;DHT22;7603;49.432;11.418;2024-01-07T12:25:51;1.60;99.90
15013;DHT22;7603;49.432;11.418;2024-01-07T12:28:20;1.50;99.90
15013;DHT22;7603;49.432;11.418;2024-01-07T12:30:47;1.50;99.90
15013;DHT22;7603;49.432;11.418;2024-01-07T12:33:17;1.60;99.90
15013;DHT22;7603;49.432;11.418;2024-01-07T12:35:47;1.60;99.90
15013;DHT22;7603;49.432;11.418;2024-01-07T12:38:13;1.50;99.90
15013;DHT22;7603;49.432;11.418;2024-01-07T12:40:38;1.50;99.90
15013;DHT22;7603;49.432;11.418;2024-01-07T12:43:05;1.50;99.90
15013;DHT22;7603;49.432;11.418;2024-01-07T12:45:32;1.50;99.90
15013;DHT22;7603;49.432;11.418;2024-01-07T12:47:58;1.50;99.90
15013;DHT22;7603;49.432;11.418;2024-01-07T12:50:27;1.40;99.90
15013;DHT22;7603;49.432;11.418;2024-01-07T12:52:55;1.40;99.90
15013;DHT22;7603;49.432;11.418;2024-01-07T12:55:22;1.40;99.90
15013;DHT22;7603;49.432;11.418;2024-01-07T12:57:48;1.50;99.90
15013;DHT22;7603;49.432;11.418;2024-01-07T13:00:14;1.40;99.90
15013;DHT22;7603;49.432;11.418;2024-01-07T13:02:39;1.40;99.90
15013;DHT22;7603;49.432;11.418;2024-01-07T13:05:06;1.40;99.90
15013;DHT22;7603;49.432;11.418;2024-01-07T13:07:32;1.30;99.90
15013;DHT22;7603;49.432;11.418;2024-01-07T13:09:58;1.30;99.90
15013;DHT22;7603;49.432;11.418;2024-01-07T13:12:23;1.40;99.90
15013;DHT22;7603;49.432;11.418;2024-01-07T13:14:49;1.30;99.90
15013;DHT22;7603;49.432;11.418;2024-01-07T13:17:15;1.30;99.90
15013;DHT22;7603;49.432;11.418;2024-01-07T13:19:41;1.30;99.90
15013;DHT22;7603;49.432;11.418;2024-01-07T13:22:07;1.30;99.90
15013;DHT22;7603;49.432;11.418;2024-01-07T13:24:33;1.30;99.90
15013;DHT22;7603;49.432;11.418;2024-01-07T13:26:58;1.30;99.90
15013;DHT22;7603;49.432;11.418;2024-01-07T13:29:24;1.20;99.90
15013;DHT22;7603;49.432;11.418;2024-01-07T13:31:50;1.20;99.90
15013;DHT22;7603;49.432;11.418;2024-01-07T13:34:16;1.20;99.90
15013;DHT22;7603;49.432;11.418;2024-01-07T13:36:46;1.20;99.90
15013;DHT22;7603;49.432;11.418;2024-01-07T13:39:12;1.20;99.90
15013;DHT22;7603;49.432;11.418;2024-01-07T13:41:37;1.20;99.90
15013;DHT22;7603;49.432;11.418;2024-01-07T13:44:04;1.20;99.90
15013;DHT22;7603;49.432;11.418;2024-01-07T13:46:30;1.20;99.90
15013;DHT22;7603;49.432;11.418;2024-01-07T13:48:55;1.20;99.90
15013;DHT22;7603;49.432;11.418;2024-01-07T13:51:21;1.20;99.90
15013;DHT22;7603;49.432;11.418;2024-01-07T13:53:47;1.30;99.90
15013;DHT22;7603;49.432;11.418;2024-01-07T13:56:13;1.20;99.90
15013;DHT22;7603;49.432;11.418;2024-01-07T13:58:38;1.20;99.90
15013;DHT22;7603;49.432;11.418;2024-01-07T14:01:04;1.10;99.90
15013;DHT22;7603;49.432;11.418;2024-01-07T14:03:33;1.10;99.90
15013;DHT22;7603;49.432;11.418;2024-01-07T14:05:59;1.10;99.90
15013;DHT22;7603;49.432;11.418;2024-01-07T14:08:26;1.10;99.90
15013;DHT22;7603;49.432;11.418;2024-01-07T14:10:52;1.00;99.90
15013;DHT22;7603;49.432;11.418;2024-01-07T14:13:17;1.00;99.90
15013;DHT22;7603;49.432;11.418;2024-01-07T14:15:44;1.00;99.90
15013;DHT22;7603;49.432;11.418;2024-01-07T14:18:10;1.10;99.90
15013;DHT22;7603;49.432;11.418;2024-01-07T14:20:40;1.00;99.90
15013;DHT22;7603;49.432;11.418;2024-01-07T14:23:05;1.00;99.90
15013;DHT22;7603;49.432;11.418;2024-01-07T14:25:31;1.00;99.90
15013;DHT22;7603;49.432;11.418;2024-01-07T14:27:57;1.10;99.90
15013;DHT22;7603;49.432;11.418;2024-01-07T14:30:22;1.10;99.90
15013;DHT22;7603;49.432;11.418;2024-01-07T14:32:48;1.10;99.90
15013;DHT22;7603;49.432;11.418;2024-01-07T14:35:14;1.10;99.90
15013;DHT22;7603;49.432;11.418;2024-01-07T14:37:39;1.10;99.90
15013;DHT22;7603;49.432;11.418;2024-01-07T14:40:06;1.10;99.90
15013;DHT22;7603;49.432;11.418;2024-01-07T14:42:32;1.10;99.90
15013;DHT22;7603;49.432;11.418;2024-01-07T14:44:57;1.00;99.90
15013;DHT22;7603;49.432;11.418;2024-01-07T14:47:23;1.00;99.90
15013;DHT22;7603;49.432;11.418;2024-01-07T14:49:49;1.00;99.90
15013;DHT22;7603;49.432;11.418;2024-01-07T14:52:14;0.90;99.90
15013;DHT22;7603;49.432;11.418;2024-01-07T14:54:40;1.00;99.90
15013;DHT22;7603;49.432;11.418;2024-01-07T14:57:06;0.90;99.90
15013;DHT22;7603;49.432;11.418;2024-01-07T14:59:34;0.80;99.90
15013;DHT22;7603;49.432;11.418;2024-01-07T15:02:01;0.80;99.90
15013;DHT22;7603;49.432;11.418;2024-01-07T15:04:28;0.70;99.90
15013;DHT22;7603;49.432;11.418;2024-01-07T15:06:54;0.70;99.90
15013;DHT22;7603;49.432;11.418;2024-01-07T15:09:19;0.60;99.90
15013;DHT22;7603;49.432;11.418;2024-01-07T15:11:47;0.50;99.90
15013;DHT22;7603;49.432;11.418;2024-01-07T15:14:14;0.50;99.90
15013;DHT22;7603;49.432;11.418;2024-01-07T15:16:40;0.40;99.90
15013;DHT22;7603;49.432;11.418;2024-01-07T15:19:06;0.30;99.90
15013;DHT22;7603;49.432;11.418;2024-01-07T15:21:32;0.30;99.90
15013;DHT22;7603;49.432;11.418;2024-01-07T15:23:57;0.30;99.90
15013;DHT22;7603;49.432;11.418;2024-01-07T15:26:23;0.30;99.90
15013;DHT22;7603;49.432;11.418;2024-01-07T15:28:49;0.30;99.90
15013;DHT22;7603;49.432;11.418;2024-01-07T15:31:15;0.30;99.90
15013;DHT22;7603;49.432;11.418;2024-01-07T15:33:41;0.20;99.90
15013;DHT22;7603;49.432;11.418;2024-01-07T15:36:07;0.20;99.90
15013;DHT22;7603;49.432;11.418;2024-01-07T15:38:32;0.10;99.90
15013;DHT22;7603;49.432;11.418;2024-01-07T15:40:58;0.20;99.90
15013;DHT22;7603;49.432;11.418;2024-01-07T15:43:24;0.10;99.90
15013;DHT22;7603;49.432;11.418;2024-01-07T15:45:49;0.10;99.90
15013;DHT22;7603;49.432;11.418;2024-01-07T15:48:15;0.00;99.90